createdAt,value
2023-05-10T00:02:24.468Z,27.75
2023-05-10T00:04:53.334Z,29.20
2023-05-10T00:07:21.182Z,25.60
2023-05-10T00:09:49.073Z,27.55
2023-05-10T00:12:16.925Z,28.75
2023-05-10T00:14:44.873Z,26.23
2023-05-10T00:17:14.126Z,30.75
2023-05-10T00:19:42.016Z,28.75
2023-05-10T00:22:09.876Z,29.20
2023-05-10T00:24:37.751Z,29.05
2023-05-10T00:27:06.033Z,30.65
2023-05-10T00:29:34.723Z,29.73
2023-05-10T00:32:02.768Z,28.88
2023-05-10T00:34:32.071Z,27.23
2023-05-10T00:36:59.929Z,28.98
2023-05-10T00:39:29.600Z,30.35
2023-05-10T00:41:57.480Z,29.93
2023-05-10T00:44:25.434Z,29.58
2023-05-10T00:46:53.408Z,29.58
2023-05-10T00:49:22.620Z,31.80
2023-05-10T00:51:52.503Z,31.25
2023-05-10T00:54:20.484Z,29.80
2023-05-10T00:56:50.197Z,29.75
2023-05-10T00:59:18.744Z,30.08
2023-05-10T01:01:46.759Z,30.10
2023-05-10T01:04:15.628Z,29.60
2023-05-10T01:06:43.808Z,29.95
2023-05-10T01:09:13.584Z,30.85
2023-05-10T01:11:42.350Z,29.27
2023-05-10T01:14:10.584Z,29.92
2023-05-10T01:16:40.814Z,30.48
2023-05-10T01:19:14.602Z,32.67
2023-05-10T01:21:50.479Z,31.67
2023-05-10T01:24:47.633Z,31.10
2023-05-10T01:27:27.318Z,31.42
2023-05-10T01:30:17.030Z,32.03
2023-05-10T01:32:53.205Z,36.70
2023-05-10T01:35:26.909Z,44.83
2023-05-10T01:38:01.679Z,42.45
2023-05-10T01:40:37.557Z,43.63
2023-05-10T01:43:10.369Z,45.30
2023-05-10T01:45:44.475Z,43.40
2023-05-10T01:48:16.083Z,40.50
2023-05-10T01:50:47.367Z,41.65
2023-05-10T01:53:19.350Z,40.97
2023-05-10T01:55:50.675Z,44.20
2023-05-10T01:58:23.056Z,46.65
2023-05-10T02:00:52.939Z,46.35
2023-05-10T02:03:25.827Z,47.22
2023-05-10T02:05:55.500Z,50.05
2023-05-10T02:08:24.525Z,47.88
2023-05-10T02:10:57.620Z,51.05
2023-05-10T02:13:26.615Z,54.38
2023-05-10T02:15:56.659Z,57.75
2023-05-10T02:18:27.724Z,54.92
2023-05-10T02:20:57.482Z,62.90
2023-05-10T02:23:27.216Z,58.20
2023-05-10T02:25:56.843Z,56.78
2023-05-10T02:28:26.791Z,62.15
2023-05-10T02:30:56.158Z,59.15
2023-05-10T02:33:26.148Z,62.70
2023-05-10T02:35:54.852Z,56.53
2023-05-10T02:38:25.754Z,60.38
2023-05-10T02:40:54.676Z,65.03
2023-05-10T02:43:26.827Z,55.53
2023-05-10T02:45:55.001Z,58.35
2023-05-10T02:48:23.342Z,58.78
2023-05-10T02:50:55.754Z,61.60
2023-05-10T02:53:31.852Z,57.30
2023-05-10T02:56:06.160Z,54.87
2023-05-10T02:58:35.057Z,55.95
2023-05-10T03:01:03.831Z,58.50
2023-05-10T03:03:32.277Z,54.58
2023-05-10T03:06:02.178Z,51.50
2023-05-10T03:08:31.469Z,56.22
2023-05-10T03:11:19.340Z,51.47
2023-05-10T03:13:56.190Z,53.50
2023-05-10T03:16:29.543Z,54.10
2023-05-10T03:19:03.953Z,52.63
2023-05-10T03:21:34.065Z,52.80
2023-05-10T03:24:09.007Z,54.65
2023-05-10T03:26:38.268Z,51.10
2023-05-10T03:29:07.320Z,50.83
2023-05-10T03:31:35.517Z,54.75
2023-05-10T03:34:03.793Z,56.15
2023-05-10T03:36:33.362Z,58.97
2023-05-10T03:39:01.434Z,51.55
2023-05-10T03:41:29.543Z,49.58
2023-05-10T03:43:57.958Z,53.55
2023-05-10T03:46:25.947Z,57.33
2023-05-10T03:48:53.978Z,54.00
2023-05-10T03:51:23.254Z,56.20
2023-05-10T03:53:52.627Z,57.38
2023-05-10T03:56:21.737Z,57.03
2023-05-10T03:58:49.842Z,58.22
2023-05-10T04:01:17.733Z,54.30
2023-05-10T04:03:46.034Z,53.92
2023-05-10T04:06:14.228Z,53.08
2023-05-10T04:08:42.426Z,50.53
2023-05-10T04:11:13.748Z,56.83
2023-05-10T04:13:42.139Z,57.83
2023-05-10T04:16:10.492Z,60.03
2023-05-10T04:18:38.772Z,58.45
2023-05-10T04:21:07.233Z,60.35
2023-05-10T04:23:35.321Z,58.03
2023-05-10T04:26:03.878Z,61.70
2023-05-10T04:28:34.011Z,57.65
2023-05-10T04:31:05.688Z,59.13
2023-05-10T04:33:34.335Z,61.33
2023-05-10T04:36:03.173Z,55.40
2023-05-10T04:38:31.711Z,57.95
2023-05-10T04:41:07.307Z,58.83
2023-05-10T04:43:37.380Z,55.45
2023-05-10T04:46:06.747Z,56.10
2023-05-10T04:48:34.888Z,57.75
2023-05-10T04:51:04.930Z,60.40
2023-05-10T04:53:33.381Z,45.92
2023-05-10T04:56:01.561Z,51.05
2023-05-10T04:58:29.466Z,50.95
2023-05-10T05:00:58.760Z,53.60
2023-05-10T05:03:26.797Z,49.13
2023-05-10T05:05:54.755Z,47.92
2023-05-10T05:08:22.675Z,48.65
2023-05-10T05:10:51.627Z,50.03
2023-05-10T05:13:19.682Z,48.30
2023-05-10T05:15:48.096Z,49.63
2023-05-10T05:18:17.404Z,49.88
2023-05-10T05:20:45.444Z,47.25
2023-05-10T05:23:13.363Z,48.42
2023-05-10T05:25:41.259Z,51.23
2023-05-10T05:28:09.240Z,47.40
2023-05-10T05:30:37.189Z,50.28
2023-05-10T05:33:05.229Z,43.40
2023-05-10T05:35:35.147Z,48.40
2023-05-10T05:38:03.066Z,41.80
2023-05-10T05:40:30.941Z,45.88
2023-05-10T05:42:58.846Z,39.60
2023-05-10T05:45:26.764Z,40.17
2023-05-10T05:47:54.677Z,39.50
2023-05-10T05:50:22.636Z,35.00
2023-05-10T05:52:52.087Z,35.88
2023-05-10T05:55:20.206Z,34.42
2023-05-10T05:57:48.029Z,33.67
2023-05-10T06:00:17.147Z,31.88
2023-05-10T06:02:45.460Z,32.05
2023-05-10T06:05:15.217Z,32.10
2023-05-10T06:07:43.838Z,32.95
2023-05-10T06:10:13.273Z,33.97
2023-05-10T06:12:41.473Z,31.92
2023-05-10T06:15:11.263Z,30.63
2023-05-10T06:17:39.812Z,29.53
2023-05-10T06:20:09.154Z,30.60
2023-05-10T06:22:37.053Z,27.15
2023-05-10T06:25:05.167Z,29.08
2023-05-10T06:27:34.387Z,26.98
2023-05-10T06:30:12.389Z,26.90
2023-05-10T06:32:41.203Z,26.20
2023-05-10T06:35:10.253Z,21.93
2023-05-10T06:37:38.161Z,22.17
2023-05-10T06:40:07.409Z,23.83
2023-05-10T06:42:36.724Z,23.10
2023-05-10T06:45:05.008Z,25.10
2023-05-10T06:47:33.021Z,22.73
2023-05-10T06:50:01.122Z,20.03
2023-05-10T06:52:29.400Z,21.02
2023-05-10T06:54:57.316Z,22.03
2023-05-10T06:59:59.678Z,17.58
2023-05-10T07:02:27.764Z,16.80
2023-05-10T07:04:55.836Z,16.02
2023-05-10T07:07:23.794Z,14.93
2023-05-10T07:09:52.347Z,15.75
2023-05-10T07:12:20.383Z,14.57
2023-05-10T07:14:48.276Z,13.57
2023-05-10T07:17:17.560Z,11.40
2023-05-10T07:19:45.427Z,13.63
2023-05-10T07:22:13.437Z,10.90
2023-05-10T07:24:41.480Z,10.25
2023-05-10T07:27:09.920Z,10.60
2023-05-10T07:29:38.400Z,10.57
2023-05-10T07:32:06.930Z,10.02
2023-05-10T07:34:36.338Z,9.45
2023-05-10T07:37:04.406Z,7.78
2023-05-10T07:39:32.329Z,9.20
2023-05-10T07:42:00.255Z,9.27
2023-05-10T07:44:28.135Z,9.65
2023-05-10T07:46:56.586Z,8.65
2023-05-10T07:49:25.657Z,8.95
2023-05-10T07:51:55.004Z,10.07
2023-05-10T07:54:22.934Z,10.30
2023-05-10T07:56:50.896Z,8.23
2023-05-10T07:59:19.753Z,8.00
2023-05-10T08:01:47.642Z,9.18
2023-05-10T08:04:15.661Z,9.03
2023-05-10T08:06:43.698Z,10.77
2023-05-10T08:09:12.995Z,9.07
2023-05-10T08:11:41.050Z,7.10
2023-05-10T08:14:08.966Z,7.45
2023-05-10T08:16:36.900Z,6.80
2023-05-10T08:19:05.550Z,8.20
2023-05-10T08:21:33.637Z,7.20
2023-05-10T08:24:01.501Z,6.10
2023-05-10T08:26:30.726Z,6.65
2023-05-10T08:28:58.615Z,7.68
2023-05-10T08:31:26.584Z,6.70
2023-05-10T08:33:54.573Z,7.35
2023-05-10T08:36:25.133Z,6.13
2023-05-10T08:38:53.732Z,7.37
2023-05-10T08:41:23.021Z,8.00
2023-05-10T08:43:52.582Z,6.40
2023-05-10T08:46:22.986Z,6.70
2023-05-10T08:48:53.323Z,7.97
2023-05-10T08:51:24.722Z,6.75
2023-05-10T08:53:52.629Z,7.93
2023-05-10T08:56:21.362Z,6.90
2023-05-10T08:58:49.919Z,6.13
2023-05-10T09:01:20.189Z,6.10
2023-05-10T09:03:49.244Z,6.00
2023-05-10T09:06:17.611Z,7.43
2023-05-10T09:08:46.748Z,8.45
2023-05-10T09:11:15.378Z,6.97
2023-05-10T09:13:44.846Z,7.75
2023-05-10T09:16:21.084Z,7.13
2023-05-10T09:18:51.649Z,7.78
2023-05-10T09:21:21.191Z,8.73
2023-05-10T09:23:51.061Z,6.67
2023-05-10T09:26:19.258Z,8.15
2023-05-10T09:28:54.361Z,9.13
2023-05-10T09:31:22.385Z,9.68
2023-05-10T09:33:52.756Z,7.28
2023-05-10T09:36:20.717Z,9.23
2023-05-10T09:38:49.996Z,7.53
2023-05-10T09:41:19.474Z,7.55
2023-05-10T09:43:47.545Z,8.77
2023-05-10T09:46:15.550Z,7.70
2023-05-10T09:48:45.762Z,8.38
2023-05-10T09:51:21.224Z,6.25
2023-05-10T09:53:51.469Z,6.50
2023-05-10T09:56:37.202Z,6.07
2023-05-10T09:59:05.594Z,6.93
2023-05-10T10:01:33.501Z,8.18
2023-05-10T10:04:04.660Z,5.80
2023-05-10T10:06:37.689Z,6.45
2023-05-10T10:09:06.629Z,8.02
2023-05-10T10:11:36.080Z,6.90
2023-05-10T10:14:04.346Z,7.38
2023-05-10T10:16:32.697Z,6.15
2023-05-10T10:19:01.044Z,6.95
2023-05-10T10:21:29.362Z,6.15
2023-05-10T10:23:58.625Z,6.15
2023-05-10T10:26:27.014Z,5.82
2023-05-10T10:29:19.840Z,6.43
2023-05-10T10:31:51.663Z,5.40
2023-05-10T10:34:27.730Z,8.35
2023-05-10T10:36:57.238Z,5.30
2023-05-10T10:39:27.149Z,4.97
2023-05-10T10:41:56.269Z,5.13
2023-05-10T10:44:28.847Z,5.93
2023-05-10T10:47:06.488Z,6.68
2023-05-10T10:49:35.074Z,5.87
2023-05-10T10:52:29.036Z,4.75
2023-05-10T10:55:04.034Z,3.97
2023-05-10T10:57:35.399Z,4.28
2023-05-10T11:00:27.405Z,6.00
2023-05-10T11:02:57.778Z,7.72
2023-05-10T11:05:47.196Z,6.38
2023-05-10T11:08:20.706Z,7.60
2023-05-10T11:10:55.442Z,7.88
2023-05-10T11:13:31.175Z,9.00
2023-05-10T11:16:00.000Z,10.73
2023-05-10T11:18:29.484Z,10.20
2023-05-10T11:21:00.588Z,8.45
2023-05-10T11:23:32.635Z,9.85
2023-05-10T11:26:02.661Z,13.02
2023-05-10T11:28:30.564Z,13.35
2023-05-10T11:30:59.028Z,10.18
2023-05-10T11:33:26.940Z,11.60
2023-05-10T11:35:54.910Z,12.57
2023-05-10T11:38:22.961Z,11.35
2023-05-10T11:40:54.964Z,12.47
2023-05-10T11:43:29.086Z,12.98
2023-05-10T11:45:57.177Z,14.52
2023-05-10T11:48:25.125Z,15.50
2023-05-10T11:50:53.733Z,15.77
2023-05-10T11:53:23.752Z,16.13
2023-05-10T11:55:52.677Z,16.33
2023-05-10T11:58:22.311Z,13.73
2023-05-10T12:00:52.104Z,16.45
2023-05-10T12:03:20.287Z,17.42
2023-05-10T12:05:48.352Z,16.50
2023-05-10T12:08:17.396Z,15.70
2023-05-10T12:10:45.280Z,15.20
2023-05-10T12:13:15.108Z,14.35
2023-05-10T12:15:44.085Z,12.77
2023-05-10T12:18:13.900Z,12.60
2023-05-10T12:20:43.558Z,14.40
2023-05-10T12:23:12.061Z,14.98
2023-05-10T12:25:40.706Z,12.48
2023-05-10T12:28:10.622Z,12.52
2023-05-10T12:30:39.204Z,13.38
2023-05-10T12:33:11.109Z,12.35
2023-05-10T12:35:51.553Z,11.48
2023-05-10T12:38:27.660Z,11.73
2023-05-10T12:40:55.980Z,11.93
2023-05-10T12:43:24.479Z,11.45
2023-05-10T12:45:52.489Z,13.27
2023-05-10T12:48:20.781Z,14.17
2023-05-10T12:50:50.504Z,12.43
2023-05-10T12:53:18.742Z,14.52
2023-05-10T12:55:46.835Z,11.13
2023-05-10T12:58:31.327Z,10.02
2023-05-10T13:01:02.810Z,9.00
2023-05-10T13:03:30.728Z,10.75
2023-05-10T13:05:59.993Z,14.13
2023-05-10T13:08:27.900Z,11.07
2023-05-10T13:10:55.794Z,10.80
2023-05-10T13:13:23.660Z,10.47
2023-05-10T13:15:51.511Z,10.20
2023-05-10T13:18:19.489Z,9.07
2023-05-10T13:20:47.424Z,10.93
2023-05-10T13:23:16.719Z,9.38
2023-05-10T13:25:44.565Z,12.07
2023-05-10T13:28:12.433Z,8.90
2023-05-10T13:30:40.266Z,8.80
2023-05-10T13:33:08.163Z,9.00
2023-05-10T13:35:36.070Z,14.00
2023-05-10T13:38:04.072Z,10.60
2023-05-10T13:40:33.338Z,12.70
2023-05-10T13:43:01.286Z,11.23
2023-05-10T13:45:29.157Z,10.82
2023-05-10T13:47:57.013Z,9.45
2023-05-10T13:50:24.943Z,14.27
2023-05-10T13:52:52.823Z,9.65
2023-05-10T13:55:20.833Z,13.43
2023-05-10T13:57:50.076Z,10.30
2023-05-10T14:00:18.551Z,12.05
2023-05-10T14:02:46.484Z,9.63
2023-05-10T14:05:14.472Z,8.98
2023-05-10T14:07:42.348Z,8.55
2023-05-10T14:10:10.843Z,7.55
2023-05-10T14:12:38.771Z,7.10
2023-05-10T14:15:11.365Z,9.35
2023-05-10T14:17:39.394Z,6.10
2023-05-10T14:20:12.862Z,8.02
2023-05-10T14:22:41.212Z,7.28
2023-05-10T14:25:09.836Z,7.38
2023-05-10T14:27:37.773Z,5.68
2023-05-10T14:30:06.610Z,6.25
2023-05-10T14:32:37.509Z,5.68
2023-05-10T14:35:06.950Z,7.20
2023-05-10T14:37:35.041Z,10.10
2023-05-10T14:40:03.508Z,8.00
2023-05-10T14:42:32.209Z,6.65
2023-05-10T14:45:00.034Z,6.00
2023-05-10T14:47:28.163Z,6.30
2023-05-10T14:49:57.354Z,6.30
2023-05-10T14:52:25.444Z,6.85
2023-05-10T14:54:53.584Z,7.13
2023-05-10T14:57:21.479Z,5.22
2023-05-10T14:59:49.481Z,5.55
2023-05-10T15:02:17.924Z,5.00
2023-05-10T15:04:46.524Z,6.72
2023-05-10T15:07:17.297Z,4.50
2023-05-10T15:09:45.491Z,5.20
2023-05-10T15:12:13.420Z,5.78
2023-05-10T15:14:41.347Z,4.68
2023-05-10T15:17:09.471Z,4.67
2023-05-10T15:19:38.036Z,4.72
2023-05-10T15:22:06.983Z,4.72
2023-05-10T15:24:36.365Z,4.83
2023-05-10T15:27:04.321Z,4.68
2023-05-10T15:29:32.516Z,4.68
2023-05-10T15:32:00.348Z,6.18
2023-05-10T15:34:29.649Z,4.75
2023-05-10T15:36:57.990Z,5.43
2023-05-10T15:39:25.891Z,7.10
2023-05-10T15:41:55.126Z,5.63
2023-05-10T15:44:23.156Z,5.30
2023-05-10T15:46:51.577Z,5.45
2023-05-10T15:49:19.608Z,5.70
2023-05-10T15:51:47.599Z,6.57
2023-05-10T15:54:15.626Z,7.20
2023-05-10T15:56:43.518Z,6.90
2023-05-10T15:59:13.100Z,7.00
2023-05-10T16:01:41.217Z,6.07
2023-05-10T16:04:09.390Z,6.25
2023-05-10T16:06:38.444Z,5.60
2023-05-10T16:09:06.498Z,8.18
2023-05-10T16:11:34.689Z,8.70
2023-05-10T16:14:02.586Z,7.80
2023-05-10T16:16:32.244Z,8.05
2023-05-10T16:19:01.388Z,8.80
2023-05-10T16:21:31.643Z,9.10
2023-05-10T16:23:59.636Z,8.17
2023-05-10T16:26:27.524Z,7.40
2023-05-10T16:28:56.019Z,7.20
2023-05-10T16:31:23.912Z,8.90
2023-05-10T16:33:53.174Z,9.93
2023-05-10T16:36:21.102Z,8.38
2023-05-10T16:38:49.106Z,11.05
2023-05-10T16:41:16.939Z,9.55
2023-05-10T16:43:46.739Z,10.95
2023-05-10T16:46:14.777Z,9.85
2023-05-10T16:48:42.649Z,11.65
2023-05-10T16:51:12.434Z,14.70
2023-05-10T16:53:40.623Z,14.63
2023-05-10T16:56:08.725Z,14.68
2023-05-10T16:58:36.590Z,16.13
2023-05-10T17:01:05.166Z,16.48
2023-05-10T17:03:33.440Z,14.87
2023-05-10T17:06:01.404Z,15.60
2023-05-10T17:08:30.694Z,12.63
2023-05-10T17:11:02.330Z,17.08
2023-05-10T17:13:30.394Z,15.60
2023-05-10T17:15:58.500Z,16.43
2023-05-10T17:18:26.792Z,16.15
2023-05-10T17:20:54.879Z,20.55
2023-05-10T17:23:22.802Z,18.70
2023-05-10T17:25:52.122Z,18.30
2023-05-10T17:28:20.093Z,16.42
2023-05-10T17:30:48.333Z,18.30
2023-05-10T17:33:16.200Z,17.45
2023-05-10T17:35:46.547Z,17.43
2023-05-10T17:38:14.339Z,17.80
2023-05-10T17:40:42.525Z,18.75
2023-05-10T17:43:11.699Z,16.17
2023-05-10T17:45:39.583Z,16.90
2023-05-10T17:48:07.768Z,17.85
2023-05-10T17:50:35.688Z,20.85
2023-05-10T17:53:03.950Z,18.70
2023-05-10T17:55:33.397Z,20.75
2023-05-10T17:58:01.679Z,17.40
2023-05-10T18:00:30.900Z,20.05
2023-05-10T18:02:58.864Z,16.80
2023-05-10T18:05:26.986Z,17.92
2023-05-10T18:07:54.930Z,18.42
2023-05-10T18:10:23.222Z,20.30
2023-05-10T18:12:52.607Z,17.33
2023-05-10T18:15:20.576Z,19.98
2023-05-10T18:17:50.697Z,22.00
2023-05-10T18:20:18.585Z,17.45
2023-05-10T18:22:46.493Z,18.13
2023-05-10T18:25:14.648Z,16.45
2023-05-10T18:27:42.775Z,19.80
2023-05-10T18:30:22.525Z,15.82
2023-05-10T18:32:51.804Z,16.67
2023-05-10T18:35:20.022Z,18.55
2023-05-10T18:37:48.678Z,17.42
2023-05-10T18:40:18.032Z,18.40
2023-05-10T18:42:52.186Z,17.59
2023-05-10T18:45:20.293Z,16.50
2023-05-10T18:47:48.374Z,17.27
2023-05-10T18:50:20.918Z,18.10
2023-05-10T18:52:48.873Z,15.88
2023-05-10T18:55:16.851Z,16.35
2023-05-10T18:57:46.088Z,18.08
2023-05-10T19:00:14.727Z,19.95
2023-05-10T19:02:42.940Z,19.70
2023-05-10T19:05:11.430Z,19.55
2023-05-10T19:07:43.422Z,20.67
2023-05-10T19:10:12.688Z,19.67
2023-05-10T19:12:42.206Z,18.25
2023-05-10T19:15:11.709Z,22.80
2023-05-10T19:17:41.747Z,18.95
2023-05-10T19:20:10.610Z,23.48
2023-05-10T19:25:13.006Z,22.40
2023-05-10T19:27:40.940Z,21.50
2023-05-10T19:30:09.846Z,21.60
2023-05-10T19:32:37.858Z,20.60
2023-05-10T19:35:06.539Z,20.80
2023-05-10T19:37:34.435Z,20.20
2023-05-10T19:40:04.753Z,20.25
2023-05-10T19:42:32.636Z,21.90
2023-05-10T19:45:00.838Z,18.63
2023-05-10T19:47:28.819Z,20.88
2023-05-10T19:49:56.749Z,22.38
2023-05-10T19:52:24.705Z,18.08
2023-05-10T19:54:52.559Z,18.83
2023-05-10T19:57:21.821Z,18.40
2023-05-10T19:59:49.710Z,17.30
2023-05-10T20:02:17.676Z,18.83
2023-05-10T20:04:45.579Z,20.92
2023-05-10T20:07:13.441Z,16.55
2023-05-10T20:09:43.284Z,18.23
2023-05-10T20:12:11.397Z,15.20
2023-05-10T20:14:40.788Z,16.42
2023-05-10T20:17:08.674Z,16.63
2023-05-10T20:19:36.775Z,15.98
2023-05-10T20:22:05.333Z,17.65
2023-05-10T20:24:33.323Z,16.73
2023-05-10T20:27:02.423Z,17.95
2023-05-10T20:29:30.720Z,16.27
2023-05-10T20:32:00.095Z,18.73
2023-05-10T20:34:28.054Z,15.88
2023-05-10T20:36:55.899Z,19.25
2023-05-10T20:39:23.808Z,20.08
2023-05-10T20:41:52.392Z,14.85
2023-05-10T20:44:22.783Z,17.00
2023-05-10T20:46:50.873Z,16.80
2023-05-10T20:49:20.445Z,17.08
2023-05-10T20:51:48.409Z,18.83
2023-05-10T20:54:16.434Z,17.92
2023-05-10T20:56:44.391Z,15.95
2023-05-10T20:59:12.360Z,17.92
2023-05-10T21:01:40.364Z,18.00
2023-05-10T21:04:08.367Z,15.82
2023-05-10T21:06:37.730Z,19.30
2023-05-10T21:09:05.759Z,20.67
2023-05-10T21:11:36.241Z,17.65
2023-05-10T21:14:04.175Z,20.50
2023-05-10T21:16:32.631Z,16.95
2023-05-10T21:19:00.551Z,19.50
2023-05-10T21:21:28.624Z,18.08
2023-05-10T21:23:57.798Z,20.33
2023-05-10T21:26:25.732Z,18.70
2023-05-10T21:28:53.653Z,20.33
2023-05-10T21:31:21.693Z,19.58
2023-05-10T21:33:49.579Z,19.53
2023-05-10T21:36:17.505Z,21.85
2023-05-10T21:38:45.473Z,20.25
2023-05-10T21:41:14.767Z,21.75
2023-05-10T21:43:42.667Z,21.50
2023-05-10T21:46:10.736Z,22.27
2023-05-10T21:48:38.713Z,20.58
2023-05-10T21:51:06.671Z,21.65
2023-05-10T21:53:37.188Z,21.80
2023-05-10T21:56:05.195Z,21.20
2023-05-10T21:58:34.380Z,21.45
2023-05-10T22:01:02.549Z,19.25
2023-05-10T22:03:30.547Z,17.97
2023-05-10T22:05:58.591Z,23.17
2023-05-10T22:08:26.646Z,23.63
2023-05-10T22:10:54.543Z,20.63
2023-05-10T22:13:22.460Z,24.75
2023-05-10T22:15:51.715Z,20.00
2023-05-10T22:18:19.619Z,24.47
2023-05-10T22:20:47.990Z,21.67
2023-05-10T22:23:16.013Z,19.40
2023-05-10T22:25:43.942Z,18.30
2023-05-10T22:28:12.016Z,19.98
2023-05-10T22:30:40.051Z,19.27
2023-05-10T22:33:09.360Z,22.60
2023-05-10T22:35:37.283Z,20.83
2023-05-10T22:38:05.198Z,17.55
2023-05-10T22:40:33.072Z,23.67
2023-05-10T22:43:01.029Z,18.20
2023-05-10T22:45:29.028Z,21.70
2023-05-10T22:47:56.965Z,19.48
2023-05-10T22:50:26.234Z,17.65
2023-05-10T22:52:54.176Z,18.55
2023-05-10T22:55:22.052Z,17.20
2023-05-10T22:57:50.021Z,21.95
2023-05-10T23:00:18.587Z,16.92
2023-05-10T23:02:46.722Z,18.02
2023-05-10T23:05:14.659Z,16.80
2023-05-10T23:07:43.883Z,16.65
2023-05-10T23:10:12.281Z,16.27
2023-05-10T23:12:40.471Z,15.05
2023-05-10T23:15:09.487Z,15.93
2023-05-10T23:17:37.415Z,16.90
2023-05-10T23:20:05.847Z,14.70
2023-05-10T23:22:33.703Z,14.80
2023-05-10T23:25:03.061Z,15.80
2023-05-10T23:27:31.226Z,15.60
2023-05-10T23:29:59.154Z,14.60
2023-05-10T23:32:27.082Z,16.00
2023-05-10T23:34:55.016Z,15.10
2023-05-10T23:37:22.917Z,16.35
2023-05-10T23:39:50.935Z,14.55
2023-05-10T23:42:20.251Z,13.33
2023-05-10T23:44:48.134Z,16.23
2023-05-10T23:47:16.014Z,13.85
2023-05-10T23:49:43.899Z,14.63
2023-05-10T23:52:11.742Z,15.35
2023-05-10T23:54:39.598Z,15.95
2023-05-10T23:57:07.511Z,14.30
2023-05-10T23:59:36.710Z,14.80
